createdAt,value
2018-09-17T00:02:14.827Z,96155.7
2018-09-17T00:07:13.234Z,96261.4
2018-09-17T00:12:11.310Z,96167.4
2018-09-17T00:17:09.297Z,96028
2018-09-17T00:22:07.075Z,96161
2018-09-17T00:27:04.985Z,96165
2018-09-17T00:32:02.989Z,96161.2
2018-09-17T00:37:01.227Z,96156.8
2018-09-17T00:41:59.002Z,96158.5
2018-09-17T00:46:56.682Z,96154.5
2018-09-17T00:51:54.911Z,96112.1
2018-09-17T00:56:52.934Z,96152.3
2018-09-17T01:01:51.166Z,96159.3
2018-09-17T01:06:49.143Z,96159.6
2018-09-17T01:11:47.299Z,96108.3
2018-09-17T01:16:44.768Z,96149.7
2018-09-17T01:21:42.770Z,96142.4
2018-09-17T01:26:40.883Z,96143
2018-09-17T01:31:38.878Z,96148.7
2018-09-17T01:36:36.916Z,96143.3
2018-09-17T01:41:34.844Z,96159.5
2018-09-17T01:46:33.473Z,96255.9
2018-09-17T01:51:32.084Z,96149.2
2018-09-17T01:56:30.030Z,96144.3
2018-09-17T02:01:28.382Z,96113.1
2018-09-17T02:06:26.216Z,96134.8
2018-09-17T02:11:24.170Z,96136.6
2018-09-17T02:16:22.514Z,96138.3
2018-09-17T02:21:20.650Z,96148.7
2018-09-17T02:26:18.837Z,96143.9
2018-09-17T02:31:16.700Z,96256.1
2018-09-17T02:36:14.820Z,96150.2
2018-09-17T02:41:12.968Z,96143.1
2018-09-17T02:46:10.822Z,96135.1
2018-09-17T02:51:08.961Z,96046
2018-09-17T02:56:06.970Z,96145.7
2018-09-17T03:01:04.910Z,96140.8
2018-09-17T03:06:02.654Z,96335.8
2018-09-17T03:11:00.952Z,96344
2018-09-17T03:15:59.882Z,96027.9
2018-09-17T03:20:57.685Z,96275.6
2018-09-17T03:25:55.723Z,96279.3
2018-09-17T03:30:53.894Z,96406.2
2018-09-17T03:35:53.127Z,96174.8
2018-09-17T03:40:50.792Z,96242.8
2018-09-17T03:45:48.789Z,96388.1
2018-09-17T03:50:46.607Z,96278
2018-09-17T03:55:44.632Z,96275.9
2018-09-17T04:00:43.058Z,96282.8
2018-09-17T04:05:40.984Z,96295.9
2018-09-17T04:10:40.757Z,96292.2
2018-09-17T04:15:37.949Z,96289.2
2018-09-17T04:20:37.730Z,96298.7
2018-09-17T04:25:35.214Z,96296.7
2018-09-17T04:30:35.356Z,96297.8
2018-09-17T04:35:34.390Z,96354.4
2018-09-17T04:40:31.885Z,96264
2018-09-17T04:45:29.926Z,96366
2018-09-17T04:50:28.078Z,96404.9
2018-09-17T04:55:26.072Z,96429.7
2018-09-17T05:00:24.472Z,96456.8
2018-09-17T05:05:22.259Z,96311.9
2018-09-17T05:10:19.762Z,96423.7
2018-09-17T05:15:17.737Z,96426.3
2018-09-17T05:20:15.750Z,96170.3
2018-09-17T05:25:13.711Z,96415.1
2018-09-17T05:30:11.613Z,96428.7
2018-09-17T05:35:09.853Z,96427.8
2018-09-17T05:40:07.797Z,96438.6
2018-09-17T05:45:05.864Z,96345.3
2018-09-17T05:50:03.841Z,96202.3
2018-09-17T05:55:02.911Z,96315.7
2018-09-17T06:00:00.287Z,96215.9
2018-09-17T06:04:58.364Z,96168.8
2018-09-17T06:09:56.222Z,96218
2018-09-17T06:14:54.282Z,96303.1
2018-09-17T06:19:52.039Z,96229.1
2018-09-17T06:24:49.642Z,96333.6
2018-09-17T06:29:48.312Z,96231.3
2018-09-17T06:34:46.491Z,96463.8
2018-09-17T06:39:44.229Z,96347.1
2018-09-17T06:44:43.185Z,96240.2
2018-09-17T06:49:40.883Z,96348.1
2018-09-17T06:54:39.694Z,96244.1
2018-09-17T06:59:37.691Z,96352.3
2018-09-17T07:04:35.998Z,96254.2
2018-09-17T07:09:33.866Z,96356.7
2018-09-17T07:14:31.702Z,96359.1
2018-09-17T07:19:29.445Z,96239.6
2018-09-17T07:24:27.243Z,96260.9
2018-09-17T07:29:25.392Z,96255
2018-09-17T07:34:23.103Z,96252.6
2018-09-17T07:39:21.593Z,96354.8
2018-09-17T07:44:19.827Z,96358.1
2018-09-17T07:49:18.176Z,96248.5
2018-09-17T07:54:16.951Z,96241.7
2018-09-17T07:59:15.004Z,96242.7
2018-09-17T08:04:13.522Z,96151.3
2018-09-17T08:09:11.150Z,96244.7
2018-09-17T08:14:09.316Z,96229.1
2018-09-17T08:19:07.329Z,96216.2
2018-09-17T08:24:05.662Z,96221
2018-09-17T08:29:03.230Z,96320.7
2018-09-17T08:34:03.475Z,96019.5
2018-09-17T08:39:01.095Z,96210.4
2018-09-17T08:43:59.175Z,96201.6
2018-09-17T08:48:56.776Z,96195.3
2018-09-17T08:53:55.318Z,96179.8
2018-09-17T08:58:53.709Z,96192.2
2018-09-17T09:03:52.432Z,96289.1
2018-09-17T09:08:50.500Z,96279.5
2018-09-17T09:13:48.648Z,96159.3
2018-09-17T09:18:46.990Z,96148.1
2018-09-17T09:23:45.182Z,96154.9
2018-09-17T09:28:43.432Z,96155.5
2018-09-17T09:33:41.566Z,96154.6
2018-09-17T09:38:39.557Z,96147.1
2018-09-17T09:43:37.887Z,96140.7
2018-09-17T09:48:35.938Z,96135.1
2018-09-17T09:53:34.219Z,96128.5
2018-09-17T09:58:32.422Z,96124.2
2018-09-17T10:03:30.629Z,96129
2018-09-17T10:08:28.507Z,96228.6
2018-09-17T10:13:26.569Z,96127.7
2018-09-17T10:18:24.587Z,96116.1
2018-09-17T10:23:22.731Z,96120.3
2018-09-17T10:28:20.561Z,96116.6
2018-09-17T10:33:18.539Z,96111.4
2018-09-17T10:38:16.692Z,96097.8
2018-09-17T10:43:14.964Z,96108.6
2018-09-17T10:48:13.111Z,96199
2018-09-17T10:53:11.570Z,96093.8
2018-09-17T10:58:09.870Z,96196.9
2018-09-17T11:03:08.044Z,96083.8
2018-09-17T11:08:05.939Z,96188.2
2018-09-17T11:13:04.014Z,96063.1
2018-09-17T11:18:02.674Z,96105.5
2018-09-17T11:23:02.884Z,96065.5
2018-09-17T11:28:00.871Z,96069.1
2018-09-17T11:32:58.952Z,96061.6
2018-09-17T11:37:57.060Z,96070.2
2018-09-17T11:42:55.371Z,96162.7
2018-09-17T11:47:53.478Z,96125.5
2018-09-17T11:52:52.417Z,96137.2
2018-09-17T11:57:51.719Z,96144.4
2018-09-17T12:02:49.922Z,95976.6
2018-09-17T12:07:47.936Z,96133.6
2018-09-17T12:12:46.274Z,96125.1
2018-09-17T12:17:44.417Z,96115.3
2018-09-17T12:22:42.349Z,96111.8
2018-09-17T12:27:40.732Z,96117.8
2018-09-17T12:32:39.763Z,96116.2
2018-09-17T12:37:37.413Z,96108.5
2018-09-17T12:42:35.820Z,96102.2
2018-09-17T12:47:34.040Z,96100.2
2018-09-17T12:52:32.352Z,96095
2018-09-17T12:57:30.706Z,96093.8
2018-09-17T13:02:29.127Z,96093.8
2018-09-17T13:07:27.393Z,96090.5
2018-09-17T13:12:25.847Z,96084.8
2018-09-17T13:17:24.174Z,96076.5
2018-09-17T13:22:22.598Z,96060.3
2018-09-17T13:27:20.834Z,95964.5
2018-09-17T13:32:19.183Z,96059.3
2018-09-17T13:37:17.448Z,96061.4
2018-09-17T13:42:15.642Z,96057.4
2018-09-17T13:47:13.588Z,95961.5
2018-09-17T13:52:11.659Z,96056.8
2018-09-17T13:57:10.022Z,96047
2018-09-17T14:02:08.645Z,96039.1
2018-09-17T14:07:06.507Z,96027.6
2018-09-17T14:12:04.939Z,95931.5
2018-09-17T14:17:02.911Z,96025.1
2018-09-17T14:22:01.705Z,95994.1
2018-09-17T14:26:59.628Z,96028
2018-09-17T14:31:57.620Z,95927.5
2018-09-17T14:36:55.552Z,95941.1
2018-09-17T14:41:53.520Z,96024.9
2018-09-17T14:46:51.704Z,96027.6
2018-09-17T14:51:49.686Z,95936
2018-09-17T14:56:47.902Z,96024
2018-09-17T15:01:46.438Z,95920.4
2018-09-17T15:06:44.375Z,96025
2018-09-17T15:11:42.744Z,96024.2
2018-09-17T15:16:41.030Z,96018.5
2018-09-17T15:21:38.991Z,95913.3
2018-09-17T15:26:37.454Z,96023.3
2018-09-17T15:31:35.399Z,96032
2018-09-17T15:36:33.822Z,96027.1
2018-09-17T15:41:32.384Z,96028.3
2018-09-17T15:46:30.454Z,96039.1
2018-09-17T15:51:28.984Z,96034.3
2018-09-17T15:56:27.167Z,96039.8
2018-09-17T16:01:25.999Z,96044.8
2018-09-17T16:06:24.261Z,95945.5
2018-09-17T16:11:22.613Z,96045
2018-09-17T16:16:20.653Z,96088.6
2018-09-17T16:21:19.071Z,96039
2018-09-17T16:26:17.520Z,95990.5
2018-09-17T16:31:15.769Z,96033.4
2018-09-17T16:36:13.849Z,96000.1
2018-09-17T16:41:12.199Z,96021
2018-09-17T16:46:10.550Z,96040.1
2018-09-17T16:51:09.093Z,95947.4
2018-09-17T16:56:07.618Z,95966.2
2018-09-17T17:01:06.007Z,96051.3
2018-09-17T17:06:03.891Z,96050.1
2018-09-17T17:11:02.697Z,96055.3
2018-09-17T17:16:00.696Z,95968.9
2018-09-17T17:20:58.924Z,95962.5
2018-09-17T17:25:57.460Z,95956.3
2018-09-17T17:30:55.573Z,95962.7
2018-09-17T17:35:53.821Z,95802
2018-09-17T17:40:52.007Z,95966.6
2018-09-17T17:45:50.888Z,96070.5
2018-09-17T17:50:49.508Z,96120.5
2018-09-17T17:55:48.392Z,95981.5
2018-09-17T18:00:47.039Z,95976.3
2018-09-17T18:05:44.991Z,95990.5
2018-09-17T18:10:43.501Z,95992.7
2018-09-17T18:15:41.599Z,96003.2
2018-09-17T18:20:39.801Z,96096.9
2018-09-17T18:25:37.911Z,96132.4
2018-09-17T18:30:35.959Z,96095.7
2018-09-17T18:35:34.312Z,95998.8
2018-09-17T18:40:32.613Z,96002.4
2018-09-17T18:45:30.889Z,96100.6
2018-09-17T18:50:31.730Z,96002
2018-09-17T18:55:29.282Z,95992
2018-09-17T19:00:27.599Z,95986
2018-09-17T19:05:26.316Z,96018.3
2018-09-17T19:10:24.392Z,95992.8
2018-09-17T19:15:22.546Z,95997.2
2018-09-17T19:20:20.984Z,96104.2
2018-09-17T19:25:19.159Z,95890.9
2018-09-17T19:30:17.334Z,96018.1
2018-09-17T19:35:15.434Z,96009.8
2018-09-17T19:40:13.689Z,96014.2
2018-09-17T19:45:11.932Z,96011.4
2018-09-17T19:50:10.249Z,96009.5
2018-09-17T19:55:08.634Z,96006.3
2018-09-17T20:00:07.390Z,96013.2
2018-09-17T20:05:05.561Z,96012.3
2018-09-17T20:10:03.767Z,96020.9
2018-09-17T20:15:02.043Z,96031.1
2018-09-17T20:20:00.271Z,96035.1
2018-09-17T20:24:58.651Z,96038.9
2018-09-17T20:29:57.179Z,96051
2018-09-17T20:34:55.237Z,96032.6
2018-09-17T20:39:53.232Z,96188.6
2018-09-17T20:44:51.379Z,96012.7
2018-09-17T20:49:49.786Z,96070.2
2018-09-17T20:54:47.850Z,96043.7
2018-09-17T20:59:46.620Z,96141.9
2018-09-17T21:04:44.651Z,96038.8
2018-09-17T21:09:42.797Z,96145.4
2018-09-17T21:14:41.136Z,96033.3
2018-09-17T21:19:39.389Z,96039.2
2018-09-17T21:24:37.550Z,96051.2
2018-09-17T21:29:35.905Z,96056.5
2018-09-17T21:34:34.353Z,96057.8
2018-09-17T21:39:32.558Z,95969.5
2018-09-17T21:44:30.932Z,96050.9
2018-09-17T21:49:29.437Z,96061.5
2018-09-17T21:54:27.797Z,96053.6
2018-09-17T21:59:26.461Z,96055.6
2018-09-17T22:04:24.796Z,96058.3
2018-09-17T22:09:23.112Z,96062
2018-09-17T22:14:21.303Z,96067.1
2018-09-17T22:19:19.729Z,96055
2018-09-17T22:24:17.799Z,96058.5
2018-09-17T22:29:16.502Z,96046.2
2018-09-17T22:34:14.280Z,96061.7
2018-09-17T22:39:13.110Z,96160.1
2018-09-17T22:44:11.366Z,96053.6
2018-09-17T22:49:09.925Z,96060.8
2018-09-17T22:54:08.390Z,96052.8
2018-09-17T22:59:07.307Z,96061.4
2018-09-17T23:04:05.638Z,96056.6
2018-09-17T23:09:04.215Z,96064.3
2018-09-17T23:14:02.929Z,96060.2
2018-09-17T23:19:01.165Z,95989
2018-09-17T23:23:59.544Z,96050.4
2018-09-17T23:28:57.916Z,96061.4
2018-09-17T23:33:56.254Z,96073.5
2018-09-17T23:38:54.813Z,96051.3
2018-09-17T23:43:53.121Z,96053.4
2018-09-17T23:48:51.980Z,96039.1
2018-09-17T23:53:50.392Z,96050
2018-09-17T23:58:48.880Z,96039
